Time;durP1;ratioP1;P1;durP2;ratioP2;P2;SDS_P1;SDS_P2;PMS_P1;PMS_P2;Temp;Humidity;BMP_temperature;BMP_pressure;BME280_temperature;BME280_humidity;BME280_pressure;Samples;Min_cycle;Max_cycle;Signal;HPM_P1;HPM_P2
2023/04/20 00:00:58;;;;;;;5.85;3.00;;;;;;;6.96;42.82;102171.19;5030403;28;20115;-81
2023/04/20 00:03:26;;;;;;;8.70;3.28;;;;;;;6.93;42.64;102173.06;5030391;28;20029;-81
2023/04/20 00:05:52;;;;;;;7.00;3.38;;;;;;;6.92;43.02;102172.22;5047323;28;20454;-83
2023/04/20 00:08:17;;;;;;;8.02;3.45;;;;;;;6.87;43.19;102175.00;5029231;28;20599;-83
2023/04/20 00:10:49;;;;;;;7.75;3.60;;;;;;;6.86;43.88;102173.31;5036012;28;20037;-82
2023/04/20 00:13:21;;;;;;;5.65;2.65;;;;;;;6.80;43.51;102168.28;5046056;28;20435;-84
2023/04/20 00:15:54;;;;;;;7.93;3.75;;;;;;;6.77;43.49;102178.84;5045001;28;20029;-82
2023/04/20 00:18:19;;;;;;;5.18;3.05;;;;;;;6.74;43.74;102178.97;5030904;28;20580;-83
2023/04/20 00:20:45;;;;;;;5.90;3.45;;;;;;;6.72;43.91;102159.88;5029593;28;20026;-81
2023/04/20 00:23:15;;;;;;;7.80;3.38;;;;;;;6.71;43.62;102166.00;5030763;28;20433;-81
2023/04/20 00:25:40;;;;;;;6.32;3.75;;;;;;;6.67;43.72;102148.72;5029691;28;20033;-81
2023/04/20 00:28:06;;;;;;;7.57;3.70;;;;;;;6.69;44.44;102148.66;5031798;28;20539;-81
2023/04/20 00:30:38;;;;;;;11.30;3.72;;;;;;;6.64;44.38;102147.97;5049456;28;20078;-81
2023/04/20 00:33:07;;;;;;;;;;;;;;;6.72;43.92;102146.78;5049548;28;20064;-80
2023/04/20 00:35:34;;;;;;;5.43;3.67;;;;;;;6.59;44.34;102145.53;5048503;28;20360;-80
2023/04/20 00:38:00;;;;;;;9.23;3.80;;;;;;;6.56;44.48;102130.81;5049728;28;20041;-80
2023/04/20 00:40:26;;;;;;;5.55;3.38;;;;;;;6.53;44.47;102132.69;5050616;28;20136;-81
2023/04/20 00:42:51;;;;;;;7.78;3.03;;;;;;;6.51;44.21;102118.81;5049031;28;20028;-81
2023/04/20 00:45:21;;;;;;;5.38;3.40;;;;;;;6.49;44.42;102131.09;5048112;28;20036;-81
2023/04/20 00:47:52;;;;;;;5.32;3.17;;;;;;;6.49;44.43;102118.03;5048240;28;20025;-81
2023/04/20 00:50:18;;;;;;;7.23;3.00;;;;;;;6.43;44.99;102120.88;5050820;28;20083;-81
2023/04/20 00:52:44;;;;;;;6.68;3.08;;;;;;;6.42;44.60;102114.78;5031100;28;20672;-81
2023/04/20 00:55:12;;;;;;;6.72;3.35;;;;;;;6.39;45.12;102111.41;5030672;28;20036;-80
2023/04/20 00:57:40;;;;;;;4.70;3.30;;;;;;;6.33;45.44;102112.47;5030540;28;20096;-80
2023/04/20 01:00:06;;;;;;;8.88;3.38;;;;;;;6.28;45.01;102107.44;5044032;28;20036;-80
2023/04/20 01:02:32;;;;;;;5.78;3.30;;;;;;;6.26;45.33;102092.72;5050803;28;20029;-81
2023/04/20 01:04:57;;;;;;;5.22;3.10;;;;;;;6.24;45.92;102094.53;5048183;28;20068;-80
2023/04/20 01:07:23;;;;;;;7.35;3.10;;;;;;;6.21;45.64;102090.25;5043752;28;20054;-80
2023/04/20 01:09:48;;;;;;;5.25;3.35;;;;;;;6.15;45.83;102085.25;5049429;28;20025;-80
2023/04/20 01:12:14;;;;;;;5.20;3.70;;;;;;;6.07;47.35;102087.28;5048274;28;20021;-80
2023/04/20 01:14:39;;;;;;;7.82;3.15;;;;;;;6.00;47.62;102085.78;5049181;28;20021;-80
2023/04/20 01:17:04;;;;;;;6.22;3.25;;;;;;;5.97;47.29;102076.28;5032579;28;20041;-80
2023/04/20 01:19:31;;;;;;;6.65;3.28;;;;;;;5.94;46.91;102073.78;5043269;28;20036;-80
2023/04/20 01:22:04;;;;;;;6.13;3.30;;;;;;;5.91;48.07;102070.44;5030446;28;20087;-80
2023/04/20 01:24:33;;;;;;;6.43;3.10;;;;;;;5.83;48.26;102068.06;5050487;28;20474;-80
2023/04/20 01:27:00;;;;;;;4.65;3.03;;;;;;;5.79;49.68;102063.00;5048131;28;20025;-80
2023/04/20 01:29:26;;;;;;;5.35;3.03;;;;;;;5.63;49.31;102060.94;5049428;28;20489;-80
2023/04/20 01:31:51;;;;;;;6.15;3.15;;;;;;;5.59;49.44;102059.28;5046602;28;20090;-80
2023/04/20 01:34:20;;;;;;;7.70;3.05;;;;;;;5.58;48.72;102051.50;5048072;28;20477;-80
2023/04/20 01:36:45;;;;;;;9.75;3.00;;;;;;;5.56;49.26;102053.31;5046683;28;20675;-80
2023/04/20 01:39:10;;;;;;;5.10;2.90;;;;;;;5.49;49.49;102049.22;5046451;28;20025;-80
2023/04/20 01:41:36;;;;;;;8.18;3.50;;;;;;;5.47;49.95;102038.84;5047534;28;20040;-80
2023/04/20 01:44:01;;;;;;;7.13;3.15;;;;;;;5.48;49.43;102040.53;5049346;28;20517;-80
2023/04/20 01:46:27;;;;;;;6.55;3.13;;;;;;;5.50;49.28;102038.72;5048881;28;20548;-82
2023/04/20 01:48:52;;;;;;;11.07;3.33;;;;;;;5.44;49.97;102038.94;5047609;28;20029;-81
2023/04/20 01:51:17;;;;;;;5.38;3.47;;;;;;;5.46;50.78;102031.91;5048596;28;20104;-81
2023/04/20 01:53:43;;;;;;;4.70;2.88;;;;;;;5.42;50.95;102032.06;5046425;28;20072;-82
2023/04/20 01:56:08;;;;;;;5.35;3.05;;;;;;;5.35;51.20;102024.44;5031149;28;20038;-81
2023/04/20 01:58:34;;;;;;;6.28;3.45;;;;;;;5.40;51.09;102026.91;5043698;28;20037;-81
2023/04/20 02:01:02;;;;;;;6.65;3.35;;;;;;;5.35;51.26;102023.59;5046703;28;20389;-80
2023/04/20 02:03:31;;;;;;;7.63;3.10;;;;;;;5.31;51.11;102014.16;5044429;28;20044;-80
2023/04/20 02:06:12;;;;;;;6.35;3.45;;;;;;;5.36;52.09;102017.47;5065134;28;20025;-80
2023/04/20 02:08:40;;;;;;;9.70;3.42;;;;;;;5.30;52.38;102004.63;5042909;28;20033;-80
2023/04/20 02:11:08;;;;;;;6.32;3.05;;;;;;;5.21;51.49;102004.94;5044189;28;20025;-80
2023/04/20 02:13:33;;;;;;;8.13;3.30;;;;;;;5.22;52.31;102004.91;5036772;28;20063;-80
2023/04/20 02:16:16;;;;;;;8.93;3.38;;;;;;;5.20;51.94;101993.66;5048802;28;20028;-80
2023/04/20 02:18:41;;;;;;;5.18;3.15;;;;;;;5.20;51.27;101992.78;5049805;28;20174;-80
2023/04/20 02:21:13;;;;;;;10.27;3.33;;;;;;;5.10;52.75;101986.16;5034586;28;20116;-80
2023/04/20 02:23:38;;;;;;;11.13;3.30;;;;;;;5.12;52.86;101992.19;5029659;28;20025;-80
2023/04/20 02:26:04;;;;;;;7.53;3.17;;;;;;;5.08;52.07;101983.59;5029310;28;20051;-80
2023/04/20 02:28:32;;;;;;;6.57;3.13;;;;;;;5.05;53.37;101983.72;5028990;28;20024;-81
2023/04/20 02:30:58;;;;;;;7.93;3.30;;;;;;;5.07;52.95;101975.84;5046481;28;20048;-80
2023/04/20 02:33:26;;;;;;;7.75;3.10;;;;;;;5.07;52.47;101981.03;5046572;28;20389;-80
2023/04/20 02:35:52;;;;;;;5.13;3.33;;;;;;;5.01;53.17;101980.34;5048871;28;20036;-81
2023/04/20 02:38:20;;;;;;;8.00;3.63;;;;;;;4.96;53.25;101984.00;5049071;28;20052;-81
2023/04/20 02:40:51;;;;;;;4.93;2.95;;;;;;;4.94;53.85;101981.47;5046551;28;21987;-81
2023/04/20 02:43:17;;;;;;;8.90;3.38;;;;;;;4.95;54.64;101972.72;5046729;28;20037;-80
2023/04/20 02:45:45;;;;;;;9.73;3.33;;;;;;;4.93;54.63;101971.94;5048230;28;20024;-81
2023/04/20 02:48:10;;;;;;;5.93;3.22;;;;;;;4.95;54.68;101969.28;5047530;28;20036;-80
2023/04/20 02:50:37;;;;;;;7.43;3.13;;;;;;;4.96;54.99;101969.22;5046876;28;20025;-80
2023/04/20 02:53:03;;;;;;;6.07;3.33;;;;;;;4.93;55.51;101963.25;5046971;28;20036;-80
2023/04/20 02:55:31;;;;;;;7.40;3.60;;;;;;;4.92;56.30;101962.41;5046998;28;20029;-80
2023/04/20 02:58:00;;;;;;;5.57;3.50;;;;;;;4.93;56.70;101969.31;5043556;28;20029;-82
2023/04/20 03:00:33;;;;;;;6.50;3.50;;;;;;;4.92;56.78;101962.41;5066464;28;20123;-81
2023/04/20 03:03:02;;;;;;;7.22;3.55;;;;;;;4.90;57.94;101969.41;5066490;28;20048;-80
2023/04/20 03:05:31;;;;;;;9.00;3.28;;;;;;;4.94;57.96;101965.81;5051359;28;20309;-80
2023/04/20 03:07:56;;;;;;;7.80;3.47;;;;;;;4.92;58.34;101951.97;5052369;28;20033;-81
2023/04/20 03:10:28;;;;;;;8.80;3.85;;;;;;;4.94;58.69;101959.75;5050132;28;20647;-80
2023/04/20 03:12:53;;;;;;;6.10;3.45;;;;;;;4.93;59.07;101947.59;5052340;28;20033;-80
2023/04/20 03:15:20;;;;;;;4.88;3.28;;;;;;;4.91;59.26;101942.44;5046733;28;20362;-80
2023/04/20 03:17:48;;;;;;;9.65;4.20;;;;;;;4.89;59.77;101944.25;5066110;28;20389;-80
2023/04/20 03:20:23;;;;;;;6.38;3.60;;;;;;;4.89;60.02;101936.44;5051681;28;20044;-80
2023/04/20 03:22:48;;;;;;;5.22;3.30;;;;;;;4.89;60.18;101930.34;5051772;28;20057;-81
2023/04/20 03:25:14;;;;;;;9.38;4.10;;;;;;;4.88;61.07;101929.50;5051316;28;20428;-80
2023/04/20 03:27:39;;;;;;;4.97;3.35;;;;;;;4.87;61.52;101927.81;5052665;28;20025;-82
2023/04/20 03:30:05;;;;;;;8.82;3.75;;;;;;;4.90;60.87;101935.53;5067310;28;20016;-83
2023/04/20 03:32:31;;;;;;;7.18;3.55;;;;;;;4.91;62.00;101928.56;5048232;28;20052;-80
2023/04/20 03:34:58;;;;;;;9.40;4.03;;;;;;;4.95;61.98;101931.00;5051388;28;20493;-82
2023/04/20 03:37:24;;;;;;;6.85;3.88;;;;;;;4.99;62.33;101927.38;5051895;28;20139;-83
2023/04/20 03:39:53;;;;;;;8.68;4.40;;;;;;;5.01;62.49;101928.19;5051084;28;20104;-83
2023/04/20 03:42:18;;;;;;;4.97;3.70;;;;;;;5.06;62.83;101920.22;5049733;28;20025;-81
2023/04/20 03:44:46;;;;;;;8.07;3.70;;;;;;;5.10;62.68;101919.19;5051444;28;20035;-81
2023/04/20 03:47:17;;;;;;;8.02;4.35;;;;;;;5.16;63.65;101911.16;5052125;28;20029;-80
2023/04/20 03:49:43;;;;;;;7.20;3.90;;;;;;;5.20;63.70;101898.84;5037797;28;20029;-81
2023/04/20 03:52:11;;;;;;;9.52;3.97;;;;;;;5.23;63.07;101898.78;5035850;28;20124;-80
2023/04/20 03:54:37;;;;;;;5.03;3.97;;;;;;;5.27;64.20;101914.25;5046129;28;20040;-80
2023/04/20 03:57:11;;;;;;;9.15;4.78;;;;;;;5.32;64.38;101909.72;5049562;28;20029;-81
2023/04/20 03:59:36;;;;;;;5.47;3.80;;;;;;;5.37;64.17;101896.53;5050843;28;20033;-81
2023/04/20 04:02:01;;;;;;;7.10;3.97;;;;;;;5.38;64.15;101895.63;5066004;28;20033;-81
2023/04/20 04:04:27;;;;;;;5.57;4.10;;;;;;;5.39;64.78;101899.94;5049858;28;20024;-81
2023/04/20 04:06:52;;;;;;;5.07;3.90;;;;;;;5.43;64.55;101895.44;5046354;28;20109;-81
2023/04/20 04:09:21;;;;;;;7.07;4.15;;;;;;;5.50;64.33;101896.94;5049766;28;20036;-81
2023/04/20 04:11:46;;;;;;;7.10;3.95;;;;;;;5.50;64.88;101887.34;5050559;28;20044;-81
2023/04/20 04:14:12;;;;;;;6.32;4.47;;;;;;;5.54;64.98;101886.31;5049781;28;20057;-81
2023/04/20 04:16:37;;;;;;;8.57;4.07;;;;;;;5.56;64.76;101892.34;5038547;28;20100;-81
2023/04/20 04:19:03;;;;;;;7.70;4.03;;;;;;;5.57;65.22;101886.19;5028975;28;20025;-80
2023/04/20 04:21:31;;;;;;;7.53;4.32;;;;;;;5.57;65.24;101888.81;5030616;28;20022;-80
2023/04/20 04:23:56;;;;;;;6.57;4.00;;;;;;;5.61;65.75;101886.97;5033737;28;20022;-80
2023/04/20 04:26:23;;;;;;;6.50;4.18;;;;;;;5.62;65.69;101871.25;5043420;28;20735;-80
2023/04/20 04:28:52;;;;;;;8.15;4.30;;;;;;;5.63;66.05;101872.09;5049005;28;20040;-81
2023/04/20 04:31:38;;;;;;;7.03;4.40;;;;;;;5.70;65.74;101872.72;5049949;28;20032;-81
2023/04/20 04:34:07;;;;;;;8.38;4.55;;;;;;;5.71;65.88;101857.00;5043486;28;20528;-81
2023/04/20 04:36:33;;;;;;;7.05;4.38;;;;;;;5.75;66.13;101844.69;5051140;28;20586;-82
2023/04/20 04:39:08;;;;;;;7.32;4.25;;;;;;;5.75;67.12;101839.44;5049737;28;20103;-81
2023/04/20 04:41:33;;;;;;;6.70;4.55;;;;;;;5.80;67.27;101845.34;5030617;28;20482;-81
2023/04/20 04:44:21;;;;;;;6.85;4.63;;;;;;;5.82;66.94;101840.91;5049979;28;20032;-81
2023/04/20 04:46:46;;;;;;;8.15;4.53;;;;;;;5.84;67.11;101839.94;5049741;28;20513;-81
2023/04/20 04:49:11;;;;;;;5.80;4.35;;;;;;;5.87;67.29;101841.59;5045756;28;20090;-81
2023/04/20 04:51:41;;;;;;;7.10;4.35;;;;;;;5.89;67.36;101837.16;5047963;28;20234;-81
2023/04/20 04:54:06;;;;;;;6.28;4.55;;;;;;;5.93;66.77;101839.63;5049086;28;20033;-81
2023/04/20 04:56:35;;;;;;;8.10;4.25;;;;;;;5.96;67.21;101843.88;5049686;28;20495;-81
2023/04/20 04:59:00;;;;;;;7.68;4.18;;;;;;;5.99;67.78;101838.53;5049336;28;20037;-81
2023/04/20 05:01:26;;;;;;;11.13;4.82;;;;;;;6.03;67.62;101834.06;5048870;28;20397;-81
2023/04/20 05:03:51;;;;;;;10.50;4.78;;;;;;;6.03;67.85;101824.47;5048578;28;20025;-81
2023/04/20 05:06:44;;;;;;;6.85;4.57;;;;;;;6.06;68.03;101824.34;5058936;28;20060;-81
2023/04/20 05:09:10;;;;;;;6.72;4.90;;;;;;;6.09;67.76;101829.44;5044059;28;20034;-80
2023/04/20 05:11:35;;;;;;;5.72;4.00;;;;;;;6.10;68.21;101825.91;5047530;28;20405;-81
2023/04/20 05:14:02;;;;;;;7.93;4.60;;;;;;;6.14;68.04;101832.72;5047872;28;20021;-81
2023/04/20 05:16:33;;;;;;;9.77;4.75;;;;;;;6.22;67.16;101838.50;5041285;28;20044;-81
2023/04/20 05:18:58;;;;;;;7.40;4.72;;;;;;;6.29;67.71;101829.47;5042484;28;20024;-82
2023/04/20 05:21:30;;;;;;;6.80;4.50;;;;;;;6.35;68.00;101837.97;5060769;28;20090;-81
2023/04/20 05:23:58;;;;;;;8.20;4.72;;;;;;;6.39;68.96;101831.72;5051470;28;20036;-81
2023/04/20 05:26:24;;;;;;;7.80;4.57;;;;;;;6.43;69.80;101834.16;5036492;28;20021;-81
2023/04/20 05:28:50;;;;;;;6.57;4.70;;;;;;;6.44;70.90;101835.03;5044092;28;20036;-81
2023/04/20 05:31:18;;;;;;;9.23;5.22;;;;;;;6.45;70.28;101829.72;5064654;28;20025;-81
2023/04/20 05:33:47;;;;;;;10.05;5.03;;;;;;;6.49;71.00;101831.31;5049877;28;20677;-81
2023/04/20 05:36:15;;;;;;;7.53;4.70;;;;;;;6.50;70.80;101835.63;5049476;28;20435;-80
2023/04/20 05:38:57;;;;;;;13.50;5.43;;;;;;;6.51;70.29;101833.84;5027236;28;20044;-81
2023/04/20 05:41:26;;;;;;;7.85;4.90;;;;;;;6.52;69.02;101827.72;5064900;28;20565;-81
2023/04/20 05:43:59;;;;;;;6.05;4.93;;;;;;;6.58;69.63;101835.28;5051753;28;20026;-81
2023/04/20 05:46:25;;;;;;;7.60;4.60;;;;;;;6.59;69.49;101834.38;5049454;28;20020;-81
2023/04/20 05:48:54;;;;;;;8.57;5.10;;;;;;;6.60;69.06;101820.38;5047865;28;20032;-80
2023/04/20 05:51:20;;;;;;;11.57;5.20;;;;;;;6.64;68.35;101816.72;5048943;28;20507;-80
2023/04/20 05:53:46;;;;;;;10.35;4.88;;;;;;;6.71;68.26;101814.69;5049723;28;21369;-80
2023/04/20 05:56:12;;;;;;;10.32;5.15;;;;;;;6.74;68.81;101815.41;5049355;28;20032;-80
2023/04/20 05:58:38;;;;;;;10.63;4.75;;;;;;;6.78;68.84;101809.13;5064790;28;20869;-81
2023/04/20 06:01:06;;;;;;;6.85;4.95;;;;;;;6.78;68.20;101811.75;5049008;28;20032;-81
2023/04/20 06:03:35;;;;;;;7.28;4.93;;;;;;;6.82;68.71;101810.75;5048692;28;20035;-80
2023/04/20 06:06:00;;;;;;;7.03;4.90;;;;;;;6.86;68.43;101822.78;5048881;28;20021;-81
2023/04/20 06:08:26;;;;;;;13.10;5.15;;;;;;;6.92;68.44;101808.56;5048148;28;20027;-81
2023/04/20 06:10:55;;;;;;;7.15;4.70;;;;;;;6.95;68.38;101804.97;5049322;28;20031;-81
2023/04/20 06:13:29;;;;;;;12.63;5.60;;;;;;;6.98;67.35;101810.06;5047966;28;20450;-81
2023/04/20 06:16:00;;;;;;;12.50;5.32;;;;;;;7.05;67.77;101806.25;5054959;28;20064;-80
2023/04/20 06:18:27;;;;;;;10.60;5.63;;;;;;;7.12;68.15;101810.31;5049202;28;20146;-81
2023/04/20 06:20:53;;;;;;;7.65;5.28;;;;;;;7.14;67.00;101800.63;5048889;28;20671;-79
2023/04/20 06:23:21;;;;;;;10.18;5.40;;;;;;;7.20;67.27;101800.34;5048189;28;20305;-80
2023/04/20 06:25:49;;;;;;;12.02;5.82;;;;;;;7.25;67.34;101801.00;5049386;28;20017;-80
2023/04/20 06:28:15;;;;;;;9.23;6.03;;;;;;;7.25;67.06;101798.41;5043895;28;20032;-79
2023/04/20 06:30:40;;;;;;;9.77;5.97;;;;;;;7.29;67.13;101794.72;5042161;28;20029;-79
2023/04/20 06:33:06;;;;;;;9.07;5.32;;;;;;;7.33;67.30;101796.28;5049158;28;20465;-80
2023/04/20 06:35:31;;;;;;;7.13;5.28;;;;;;;7.37;66.42;101792.59;5051003;28;20124;-79
2023/04/20 06:37:57;;;;;;;8.73;5.53;;;;;;;7.38;66.77;101790.81;5051304;28;20044;-81
2023/04/20 06:40:26;;;;;;;10.70;5.28;;;;;;;7.46;67.33;101800.03;5052785;28;20461;-80
2023/04/20 06:42:51;;;;;;;10.07;5.70;;;;;;;7.48;66.64;101792.09;5050048;28;20025;-79
2023/04/20 06:45:39;;;;;;;10.52;5.70;;;;;;;7.49;66.22;101792.03;5051707;28;20079;-82
2023/04/20 06:48:03;;;;;;;9.07;5.55;;;;;;;7.46;65.95;101783.47;5051485;28;20099;-80
2023/04/20 06:50:28;;;;;;;9.07;6.05;;;;;;;7.46;66.26;101791.31;5052395;28;20021;-81
2023/04/20 06:52:54;;;;;;;11.80;5.88;;;;;;;7.48;66.29;101786.84;5050891;28;20469;-82
2023/04/20 06:55:23;;;;;;;9.68;6.00;;;;;;;7.51;66.50;101790.19;5051784;28;20388;-82
2023/04/20 06:57:51;;;;;;;9.80;5.90;;;;;;;7.50;66.49;101793.72;5052962;28;20024;-82
2023/04/20 07:00:46;;;;;;;8.32;6.00;;;;;;;7.51;66.57;101784.94;5051031;28;20025;-82
2023/04/20 07:03:22;;;;;;;;;;;;;;;;;;;;;
2023/04/20 07:05:48;;;;;;;11.90;6.50;;;;;;;7.51;66.99;101777.09;5050726;28;20029;-82
2023/04/20 07:08:40;;;;;;;13.63;6.07;;;;;;;7.54;66.85;101783.94;5051223;28;20112;-82
2023/04/20 07:11:09;;;;;;;8.35;5.97;;;;;;;7.53;66.46;101782.25;5051868;28;20041;-82
2023/04/20 07:13:34;;;;;;;12.23;6.05;;;;;;;7.50;66.50;101783.25;5044354;28;20399;-82
2023/04/20 07:16:03;;;;;;;8.73;6.40;;;;;;;7.50;66.32;101778.00;5043059;28;20025;-82
2023/04/20 07:18:28;;;;;;;11.90;6.15;;;;;;;7.54;66.71;101773.47;5044139;28;20554;-82
2023/04/20 07:20:55;;;;;;;11.80;6.60;;;;;;;7.54;66.63;101783.94;5044787;28;20028;-83
2023/04/20 07:23:23;;;;;;;9.70;5.45;;;;;;;7.51;66.39;101778.88;5041599;28;20055;-82
2023/04/20 07:25:51;;;;;;;9.75;5.47;;;;;;;7.46;66.72;101786.94;5067721;28;20025;-82
2023/04/20 07:28:17;;;;;;;8.50;5.78;;;;;;;7.46;66.89;101775.59;5045832;28;20037;-81
2023/04/20 07:30:44;;;;;;;11.48;5.63;;;;;;;7.48;66.76;101790.31;5044091;28;20036;-82
2023/04/20 07:33:10;;;;;;;10.50;5.75;;;;;;;7.47;66.78;101801.72;5049671;28;20033;-83
2023/04/20 07:35:36;;;;;;;9.23;6.07;;;;;;;7.43;66.91;101781.84;5049298;28;20453;-82
2023/04/20 07:38:11;;;;;;;9.93;5.50;;;;;;;7.43;66.93;101786.22;5050550;28;20080;-83
2023/04/20 07:40:36;;;;;;;7.78;4.88;;;;;;;7.45;66.83;101792.25;5037526;28;20151;-82
2023/04/20 07:43:04;;;;;;;8.25;4.88;;;;;;;7.48;67.22;101784.25;5031603;28;20033;-82
2023/04/20 07:45:30;;;;;;;7.18;5.20;;;;;;;7.51;67.00;101784.94;5036568;28;20028;-82
2023/04/20 07:48:08;;;;;;;11.15;5.75;;;;;;;7.47;66.67;101783.41;5036920;28;20428;-81
2023/04/20 07:50:36;;;;;;;11.25;5.00;;;;;;;7.47;67.19;101788.63;5051982;28;20107;-81
2023/04/20 07:53:05;;;;;;;8.23;5.30;;;;;;;7.52;67.36;101785.78;5049443;28;20068;-82
2023/04/20 07:55:33;;;;;;;14.35;5.78;;;;;;;7.61;67.50;101784.53;5051842;28;20056;-82
2023/04/20 07:57:59;;;;;;;7.95;5.35;;;;;;;7.67;67.24;101784.25;5049718;28;20024;-82
2023/04/20 08:00:28;;;;;;;10.20;5.20;;;;;;;7.75;67.32;101782.97;5066521;28;20064;-81
2023/04/20 08:02:53;;;;;;;7.63;4.53;;;;;;;7.92;66.73;101783.94;5051327;28;20104;-81
2023/04/20 08:05:19;;;;;;;7.63;5.05;;;;;;;8.05;66.37;101774.56;5050647;28;20372;-81
2023/04/20 08:07:44;;;;;;;9.63;4.88;;;;;;;8.08;66.04;101779.66;5050364;28;20033;-82
2023/04/20 08:10:13;;;;;;;8.15;5.10;;;;;;;8.09;66.20;101782.22;5050078;28;20029;-82
2023/04/20 08:12:39;;;;;;;5.85;4.68;;;;;;;8.03;66.27;101773.81;5049227;28;20395;-82
2023/04/20 08:15:14;;;;;;;13.10;5.10;;;;;;;8.02;66.35;101777.34;5038011;28;20041;-82
2023/04/20 08:17:39;;;;;;;8.38;4.70;;;;;;;8.04;66.30;101776.34;5047814;28;20033;-82
2023/04/20 08:23:27;;;;;;;10.85;5.03;;;;;;;8.21;66.04;101765.03;5051586;28;20083;-83
2023/04/20 08:25:56;;;;;;;7.63;4.53;;;;;;;8.29;66.05;101767.25;5051615;28;20537;-83
2023/04/20 08:28:22;;;;;;;6.93;5.00;;;;;;;8.33;65.74;101768.81;5050650;28;20485;-82
2023/04/20 08:30:49;;;;;;;8.48;4.82;;;;;;;8.33;65.95;101750.44;5050357;28;20090;-82
2023/04/20 08:33:15;;;;;;;6.53;4.80;;;;;;;8.44;66.12;101759.53;5065175;28;20025;-82
2023/04/20 08:35:40;;;;;;;7.43;4.80;;;;;;;8.46;65.54;101755.06;5030283;28;20060;-82
2023/04/20 08:38:06;;;;;;;6.28;5.20;;;;;;;8.57;65.54;101749.25;5030181;28;20500;-82
2023/04/20 08:40:31;;;;;;;7.97;5.10;;;;;;;8.60;64.38;101735.97;5029628;28;20445;-82
2023/04/20 08:43:00;;;;;;;7.82;4.50;;;;;;;8.93;65.12;101738.63;5029829;28;20013;-82
2023/04/20 08:45:26;;;;;;;6.88;4.35;;;;;;;9.07;63.93;101741.34;5029682;28;20049;-82
2023/04/20 08:47:52;;;;;;;6.97;4.20;;;;;;;9.06;63.42;101738.81;5028724;28;20065;-82
2023/04/20 08:50:26;;;;;;;6.35;4.15;;;;;;;9.06;64.16;101744.06;5030559;28;20021;-83
2023/04/20 08:52:55;;;;;;;8.05;4.55;;;;;;;9.02;64.70;101732.03;5029235;28;20033;-83
2023/04/20 08:55:20;;;;;;;7.47;3.90;;;;;;;8.96;64.38;101735.00;5029466;28;20489;-82
2023/04/20 08:57:49;;;;;;;8.80;4.20;;;;;;;8.99;64.43;101732.19;5030300;28;20099;-81
2023/04/20 09:00:15;;;;;;;5.63;4.28;;;;;;;9.10;64.01;101729.84;5029955;28;20045;-83
2023/04/20 09:02:57;;;;;;;7.28;3.83;;;;;;;9.18;64.32;101725.03;5041704;28;20032;-80
2023/04/20 09:05:32;;;;;;;8.32;4.78;;;;;;;9.19;64.12;101729.34;5048788;28;20139;-81
2023/04/20 09:08:04;;;;;;;8.15;4.60;;;;;;;9.18;64.03;101732.91;5045878;28;20397;-81
2023/04/20 09:10:41;;;;;;;6.00;4.23;;;;;;;9.11;63.76;101718.41;5029766;28;20017;-81
2023/04/20 09:13:07;;;;;;;5.65;3.88;;;;;;;8.90;64.15;101716.94;5044814;28;20025;-81
2023/04/20 09:15:32;;;;;;;8.35;4.53;;;;;;;8.94;64.56;101723.72;5032631;28;20338;-82
2023/04/20 09:17:58;;;;;;;5.47;3.70;;;;;;;8.88;64.06;101727.53;5046327;28;20027;-82
2023/04/20 09:20:41;;;;;;;8.65;3.88;;;;;;;8.82;63.79;101719.13;5050279;28;20048;-83
2023/04/20 09:23:11;;;;;;;6.70;4.38;;;;;;;8.73;63.92;101718.66;5049143;28;20025;-83
2023/04/20 09:25:37;;;;;;;5.40;3.70;;;;;;;8.84;64.10;101717.28;5049557;28;20028;-82
2023/04/20 09:28:08;;;;;;;7.47;4.18;;;;;;;8.88;63.85;101726.69;5049928;28;20378;-83
2023/04/20 09:30:41;;;;;;;9.45;4.10;;;;;;;8.87;63.31;101722.38;5049736;28;20063;-83
2023/04/20 09:33:07;;;;;;;5.22;3.97;;;;;;;8.89;63.45;101726.59;5048418;28;20028;-84
2023/04/20 09:35:33;;;;;;;8.23;3.65;;;;;;;8.99;63.92;101721.72;5049484;28;20393;-82
2023/04/20 09:38:08;;;;;;;9.25;4.07;;;;;;;9.17;63.29;101725.09;5049713;28;20045;-82
2023/04/20 09:40:34;;;;;;;8.13;3.65;;;;;;;9.22;63.30;101709.97;5048847;28;20389;-82
2023/04/20 09:43:09;;;;;;;7.10;3.90;;;;;;;9.25;62.44;101717.69;5049785;28;20021;-83
2023/04/20 09:45:37;;;;;;;5.22;3.75;;;;;;;9.26;62.86;101716.75;5047882;28;20041;-82
2023/04/20 09:48:06;;;;;;;5.28;3.75;;;;;;;9.11;62.57;101727.13;5048982;28;20024;-82
2023/04/20 09:50:35;;;;;;;8.52;3.85;;;;;;;9.04;63.00;101717.06;5047234;28;20033;-81
2023/04/20 09:53:05;;;;;;;6.65;3.92;;;;;;;8.98;62.85;101717.38;5063418;28;20488;-82
2023/04/20 09:55:31;;;;;;;6.20;4.07;;;;;;;8.97;62.65;101708.66;5049820;28;20036;-83
2023/04/20 09:57:58;;;;;;;7.32;5.20;;;;;;;9.02;62.85;101703.16;5047836;28;20479;-82
2023/04/20 10:00:23;;;;;;;7.47;4.75;;;;;;;9.09;63.32;101707.16;5049060;28;20024;-83
2023/04/20 10:02:50;;;;;;;5.65;4.15;;;;;;;9.17;63.12;101699.69;5049474;28;20276;-83
2023/04/20 10:05:15;;;;;;;6.05;4.10;;;;;;;9.32;61.17;101693.63;5048157;28;20033;-83
2023/04/20 10:07:41;;;;;;;5.35;3.97;;;;;;;9.73;60.88;101685.22;5043776;28;20393;-82
2023/04/20 10:10:13;;;;;;;7.95;4.32;;;;;;;9.85;59.57;101687.13;5048291;28;20032;-83
2023/04/20 10:12:55;;;;;;;7.13;3.95;;;;;;;9.94;60.33;101676.06;5064309;28;20025;-83
2023/04/20 10:15:23;;;;;;;6.13;4.03;;;;;;;10.15;58.58;101674.00;5047976;28;20033;-82
2023/04/20 10:17:49;;;;;;;7.55;4.30;;;;;;;10.16;59.17;101680.09;5049792;28;20432;-82
2023/04/20 10:20:24;;;;;;;6.05;4.32;;;;;;;9.96;59.82;101687.34;5048934;28;20024;-82
2023/04/20 10:23:04;;;;;;;6.55;4.20;;;;;;;9.94;60.38;101681.34;5047450;28;20087;-84
2023/04/20 10:25:37;;;;;;;7.82;4.00;;;;;;;9.92;60.95;101672.69;5029314;28;20029;-82
2023/04/20 10:28:08;;;;;;;4.35;3.20;;;;;;;9.73;58.91;101685.22;5029175;28;20482;-83
2023/04/20 10:30:34;;;;;;;4.10;3.50;;;;;;;9.56;58.68;101680.03;5028773;28;20100;-83
2023/04/20 10:33:11;;;;;;;7.25;3.70;;;;;;;9.40;60.16;101680.91;5028928;28;20025;-82
2023/04/20 10:35:56;;;;;;;4.53;4.13;;;;;;;9.35;62.20;101682.97;5049473;28;20021;-83
2023/04/20 10:38:33;;;;;;;6.05;4.07;;;;;;;9.26;62.60;101682.63;5048831;28;20382;-83
2023/04/20 10:41:09;;;;;;;8.27;3.92;;;;;;;9.09;62.55;101670.41;5047264;28;20479;-84
2023/04/20 10:43:34;;;;;;;5.80;4.32;;;;;;;9.00;62.83;101671.75;5065297;28;20025;-83
2023/04/20 10:46:15;;;;;;;4.72;4.00;;;;;;;9.11;62.29;101663.28;5047545;28;20033;-82
2023/04/20 10:48:55;;;;;;;6.88;4.60;;;;;;;9.56;62.18;101665.13;5048215;28;20017;-84
2023/04/20 10:51:21;;;;;;;7.30;4.55;;;;;;;10.08;62.22;101666.56;5047400;28;20765;-82
2023/04/20 10:54:09;;;;;;;6.70;4.93;;;;;;;10.29;61.18;101660.06;5046277;28;20021;-83
2023/04/20 10:56:48;;;;;;;6.50;4.50;;;;;;;10.50;61.27;101660.56;5046961;28;20140;-82
2023/04/20 10:59:16;;;;;;;7.70;4.22;;;;;;;10.47;58.17;101660.75;5037427;28;20504;-83
2023/04/20 11:01:43;;;;;;;5.68;4.32;;;;;;;10.36;58.38;101656.09;5045019;28;20033;-83
2023/04/20 11:04:10;;;;;;;5.93;4.30;;;;;;;10.13;57.76;101664.50;5047604;28;20021;-83
2023/04/20 11:06:40;;;;;;;5.25;4.60;;;;;;;9.94;59.85;101648.94;5046856;28;20033;-82
2023/04/20 11:09:25;;;;;;;10.55;4.38;;;;;;;9.99;60.31;101653.00;5045723;28;20367;-83
2023/04/20 11:12:16;;;;;;;5.18;4.43;;;;;;;9.94;59.85;101644.53;5049089;28;20033;-82
2023/04/20 11:14:57;;;;;;;8.20;5.18;;;;;;;9.77;60.94;101647.31;5042866;28;20043;-82
2023/04/20 11:17:36;;;;;;;9.50;4.68;;;;;;;9.65;61.71;101653.28;5047468;28;20502;-82
2023/04/20 11:20:13;;;;;;;8.63;5.05;;;;;;;9.61;61.70;101646.50;5041862;28;20499;-83
2023/04/20 11:22:40;;;;;;;6.72;4.80;;;;;;;9.75;62.21;101646.56;5047369;28;20546;-82
2023/04/20 11:25:08;;;;;;;6.72;4.50;;;;;;;9.95;61.29;101646.22;5047351;28;20018;-82
2023/04/20 11:27:34;;;;;;;9.93;5.30;;;;;;;10.07;61.06;101630.69;5059789;28;20036;-82
2023/04/20 11:30:06;;;;;;;6.43;5.10;;;;;;;10.13;61.40;101633.78;5049738;28;20055;-83
2023/04/20 11:32:32;;;;;;;6.47;4.75;;;;;;;10.09;61.15;101634.06;5050991;28;20139;-83
2023/04/20 11:35:06;;;;;;;10.70;5.68;;;;;;;10.24;60.50;101625.28;5048290;28;20032;-83
2023/04/20 11:37:53;;;;;;;7.47;5.38;;;;;;;10.20;61.55;101618.50;5038775;28;20059;-82
2023/04/20 11:40:19;;;;;;;8.60;5.13;;;;;;;10.10;60.91;101612.09;5037361;28;20031;-82
2023/04/20 11:42:45;;;;;;;7.95;5.38;;;;;;;9.90;60.90;101616.72;5050106;28;20032;-82
2023/04/20 11:45:11;;;;;;;7.22;4.80;;;;;;;9.66;60.50;101618.19;5050028;28;20413;-84